Time;durP1;ratioP1;P1;durP2;ratioP2;P2;SDS_P1;SDS_P2;PMS_P1;PMS_P2;Temp;Humidity;BMP_temperature;BMP_pressure;BME280_temperature;BME280_humidity;BME280_pressure;Samples;Min_cycle;Max_cycle;Signal;HPM_P1;HPM_P2
2021/05/07 00:00:34;;;;;;;0.95;0.80;;;9.10;86.00;;;;;;4965574;28;20059;-76
2021/05/07 00:03:00;;;;;;;0.88;0.75;;;9.20;86.70;;;;;;4965372;28;20110;-76
2021/05/07 00:05:26;;;;;;;1.27;0.80;;;9.10;86.00;;;;;;4963679;28;20030;-75
2021/05/07 00:07:52;;;;;;;0.80;0.70;;;9.10;85.60;;;;;;4964261;28;20032;-77
2021/05/07 00:10:17;;;;;;;1.33;0.60;;;9.10;85.80;;;;;;4962950;28;20041;-76
2021/05/07 00:12:44;;;;;;;1.08;0.82;;;9.10;85.50;;;;;;4968068;28;20034;-76
2021/05/07 00:15:10;;;;;;;0.82;0.82;;;9.10;85.50;;;;;;4964455;28;22382;-76
2021/05/07 00:17:36;;;;;;;0.82;0.82;;;9.10;85.40;;;;;;4963173;28;20058;-75
2021/05/07 00:20:04;;;;;;;2.00;0.82;;;9.10;85.70;;;;;;4973183;28;20474;-75
2021/05/07 00:22:29;;;;;;;1.13;1.10;;;9.10;85.50;;;;;;4967772;28;21511;-76
2021/05/07 00:24:55;;;;;;;0.70;0.70;;;9.10;85.60;;;;;;4968630;28;20034;-76
2021/05/07 00:27:20;;;;;;;0.70;0.70;;;9.10;85.40;;;;;;4967208;28;20069;-75
2021/05/07 00:29:46;;;;;;;2.90;1.00;;;9.00;85.60;;;;;;4966395;28;20611;-76
2021/05/07 00:32:13;;;;;;;0.65;0.50;;;9.00;85.50;;;;;;4968152;28;20053;-76
2021/05/07 00:34:39;;;;;;;0.65;0.65;;;9.00;85.30;;;;;;4966763;28;20059;-76
2021/05/07 00:37:04;;;;;;;0.73;0.70;;;9.00;85.70;;;;;;4968240;28;20101;-76
2021/05/07 00:39:30;;;;;;;0.65;0.65;;;9.00;85.90;;;;;;4966456;28;20030;-76
2021/05/07 00:42:02;;;;;;;0.80;0.80;;;9.00;86.10;;;;;;4967217;28;20121;-77
2021/05/07 00:44:28;;;;;;;0.65;0.65;;;9.00;86.10;;;;;;4967172;28;20392;-75
2021/05/07 00:46:54;;;;;;;0.98;0.60;;;9.00;85.70;;;;;;4967696;28;20124;-76
2021/05/07 00:49:20;;;;;;;1.10;0.80;;;9.00;85.90;;;;;;4965770;28;20035;-76
2021/05/07 00:51:46;;;;;;;1.25;0.88;;;9.00;86.20;;;;;;4967784;28;20097;-76
2021/05/07 00:54:12;;;;;;;0.55;0.55;;;9.00;86.50;;;;;;4971065;28;20192;-76
2021/05/07 00:56:38;;;;;;;1.95;0.90;;;9.00;86.80;;;;;;4970113;28;20046;-77
2021/05/07 00:59:03;;;;;;;0.63;0.60;;;9.00;87.40;;;;;;4967024;28;20030;-74
2021/05/07 01:01:31;;;;;;;1.15;0.63;;;8.90;87.40;;;;;;4966928;28;22185;-76
2021/05/07 01:03:57;;;;;;;0.50;0.50;;;8.90;87.90;;;;;;4969937;28;21667;-75
2021/05/07 01:06:22;;;;;;;0.50;0.50;;;8.90;87.90;;;;;;4969494;28;20034;-76
2021/05/07 01:08:48;;;;;;;0.75;0.75;;;8.90;87.90;;;;;;4967012;28;20450;-75
2021/05/07 01:11:14;;;;;;;1.95;1.17;;;8.90;88.40;;;;;;4968302;28;21406;-76
2021/05/07 01:13:40;;;;;;;0.60;0.60;;;8.90;88.80;;;;;;4966366;28;20034;-76
2021/05/07 01:16:07;;;;;;;0.77;0.60;;;8.80;88.90;;;;;;4969330;28;20023;-76
2021/05/07 01:18:32;;;;;;;0.80;0.80;;;8.80;89.10;;;;;;4992613;28;20019;-76
2021/05/07 01:20:58;;;;;;;2.47;0.98;;;8.80;89.30;;;;;;4990059;28;20440;-76
2021/05/07 01:23:24;;;;;;;1.42;0.90;;;8.80;89.20;;;;;;4991077;28;20108;-77
2021/05/07 01:25:50;;;;;;;1.52;1.15;;;8.80;89.60;;;;;;4977256;28;20030;-77
2021/05/07 01:28:16;;;;;;;0.93;0.82;;;8.80;90.00;;;;;;4986706;28;20065;-75
2021/05/07 01:30:50;;;;;;;1.08;1.00;;;8.80;89.80;;;;;;4983138;28;20090;-76
2021/05/07 01:33:17;;;;;;;2.28;0.85;;;8.80;90.00;;;;;;4987962;28;20041;-77
2021/05/07 01:35:44;;;;;;;2.50;1.17;;;8.80;90.10;;;;;;4985762;28;20026;-76
2021/05/07 01:38:14;;;;;;;1.25;1.00;;;8.70;90.20;;;;;;4986464;28;20081;-76
2021/05/07 01:40:50;;;;;;;2.25;0.88;;;8.70;90.30;;;;;;4994670;28;20026;-76
2021/05/07 01:43:17;;;;;;;1.58;1.10;;;8.70;90.80;;;;;;4992189;28;20510;-76
2021/05/07 01:45:44;;;;;;;2.53;0.90;;;8.70;90.60;;;;;;4991424;28;20164;-76
2021/05/07 01:48:10;;;;;;;2.47;1.13;;;8.70;90.60;;;;;;4988744;28;20027;-77
2021/05/07 01:50:38;;;;;;;0.60;0.60;;;8.70;90.60;;;;;;4988839;28;20104;-76
2021/05/07 01:53:05;;;;;;;1.00;0.90;;;8.70;90.70;;;;;;4984323;28;20405;-76
2021/05/07 01:55:33;;;;;;;1.13;0.70;;;8.70;90.50;;;;;;4996122;28;20042;-76
2021/05/07 01:58:00;;;;;;;4.07;1.25;;;8.60;90.50;;;;;;4984013;28;20029;-76
2021/05/07 02:00:29;;;;;;;1.05;0.95;;;8.70;90.60;;;;;;4986380;28;20113;-76
2021/05/07 02:02:56;;;;;;;1.05;1.05;;;8.70;90.60;;;;;;4991260;28;20026;-75
2021/05/07 02:05:23;;;;;;;0.60;0.60;;;8.70;90.70;;;;;;4987714;28;20026;-77
2021/05/07 02:07:51;;;;;;;1.63;1.10;;;8.70;90.70;;;;;;4986076;28;20022;-75
2021/05/07 02:10:19;;;;;;;0.90;0.90;;;8.70;90.60;;;;;;4986714;28;20104;-76
2021/05/07 02:12:45;;;;;;;2.67;1.30;;;8.70;90.50;;;;;;4986336;28;20066;-76
2021/05/07 02:15:14;;;;;;;2.05;1.10;;;8.70;90.40;;;;;;4990113;28;20117;-77
2021/05/07 02:17:40;;;;;;;3.13;1.00;;;8.60;90.20;;;;;;4984436;28;20481;-75
2021/05/07 02:20:07;;;;;;;2.05;0.90;;;8.60;90.10;;;;;;4985038;28;20035;-77
2021/05/07 02:22:32;;;;;;;1.40;1.20;;;8.50;90.10;;;;;;4988626;28;20032;-75
2021/05/07 02:24:58;;;;;;;2.83;1.10;;;8.50;90.10;;;;;;4988440;28;20018;-76
2021/05/07 02:27:24;;;;;;;1.08;0.93;;;8.50;90.00;;;;;;4990353;28;20021;-77
2021/05/07 02:29:50;;;;;;;1.10;1.10;;;8.40;89.90;;;;;;4987114;28;20101;-77
2021/05/07 02:32:16;;;;;;;1.55;0.90;;;8.40;90.00;;;;;;4995220;28;20034;-76
2021/05/07 02:34:42;;;;;;;1.13;1.02;;;8.40;90.10;;;;;;4987993;28;20022;-77
2021/05/07 02:37:08;;;;;;;0.80;0.80;;;8.40;90.10;;;;;;4997088;28;20023;-76
2021/05/07 02:39:34;;;;;;;4.38;1.00;;;8.40;90.00;;;;;;4986765;28;20037;-76
2021/05/07 02:41:59;;;;;;;1.00;1.00;;;8.40;90.50;;;;;;4989100;28;20022;-76
2021/05/07 02:44:25;;;;;;;0.98;0.88;;;8.40;90.10;;;;;;4988005;28;20556;-76
2021/05/07 02:46:50;;;;;;;1.65;0.88;;;8.40;90.00;;;;;;4994165;28;20125;-76
2021/05/07 02:49:16;;;;;;;0.85;0.77;;;8.40;90.00;;;;;;4992170;28;20041;-76
2021/05/07 02:51:42;;;;;;;0.80;0.80;;;8.40;89.90;;;;;;4996985;28;20033;-76
2021/05/07 02:54:07;;;;;;;2.00;1.00;;;8.40;90.00;;;;;;4984638;28;20038;-76
2021/05/07 02:56:33;;;;;;;2.45;1.10;;;8.40;90.10;;;;;;4994406;28;20046;-76
2021/05/07 02:58:58;;;;;;;1.00;0.90;;;8.30;90.20;;;;;;4982345;28;20035;-76
2021/05/07 03:01:24;;;;;;;2.95;0.93;;;8.30;90.30;;;;;;4992892;28;20766;-77
2021/05/07 03:03:50;;;;;;;1.63;0.85;;;8.30;90.50;;;;;;4985021;28;20109;-76
2021/05/07 03:06:16;;;;;;;0.70;0.70;;;8.20;90.30;;;;;;4992594;28;20056;-77
2021/05/07 03:08:41;;;;;;;2.05;1.15;;;8.10;90.40;;;;;;4986384;28;20021;-75
2021/05/07 03:11:07;;;;;;;2.67;0.90;;;8.10;90.60;;;;;;4987005;28;20536;-77
2021/05/07 03:13:33;;;;;;;1.00;0.85;;;8.10;90.90;;;;;;4986807;28;20030;-76
2021/05/07 03:15:59;;;;;;;0.80;0.75;;;8.10;90.50;;;;;;4981854;28;20033;-76
2021/05/07 03:18:26;;;;;;;0.90;0.90;;;8.10;90.50;;;;;;4986333;28;20049;-75
2021/05/07 03:20:52;;;;;;;2.10;0.90;;;8.10;90.70;;;;;;4994473;28;20022;-76
2021/05/07 03:23:17;;;;;;;3.08;0.90;;;8.00;90.60;;;;;;4992890;28;20504;-76
2021/05/07 03:25:45;;;;;;;1.27;0.70;;;8.10;90.40;;;;;;4987165;28;20374;-76
2021/05/07 03:28:11;;;;;;;0.95;0.80;;;8.00;90.30;;;;;;4981015;28;20100;-76
2021/05/07 03:30:37;;;;;;;0.80;0.80;;;8.00;90.20;;;;;;4989438;28;20034;-75
2021/05/07 03:33:04;;;;;;;1.42;0.88;;;8.00;90.30;;;;;;4983230;28;20045;-77
2021/05/07 03:35:31;;;;;;;1.25;0.50;;;8.00;90.20;;;;;;4984727;28;20388;-76
2021/05/07 03:37:57;;;;;;;2.00;0.70;;;7.90;89.50;;;;;;4983368;28;20583;-76
2021/05/07 03:40:23;;;;;;;0.70;0.70;;;7.90;89.70;;;;;;4985969;28;20034;-75
2021/05/07 03:42:48;;;;;;;1.80;0.60;;;7.90;89.40;;;;;;4985589;28;20161;-76
2021/05/07 03:45:15;;;;;;;1.20;0.60;;;7.80;89.10;;;;;;4989830;28;20113;-75
2021/05/07 03:47:41;;;;;;;0.52;0.52;;;7.80;89.40;;;;;;4991048;28;20025;-76
2021/05/07 03:50:08;;;;;;;0.80;0.80;;;7.70;89.40;;;;;;4984629;28;20505;-75
2021/05/07 03:52:34;;;;;;;0.50;0.50;;;7.70;89.20;;;;;;4984332;28;20058;-76
2021/05/07 03:54:59;;;;;;;0.70;0.70;;;7.60;88.80;;;;;;4984339;28;20109;-76
2021/05/07 03:57:26;;;;;;;0.65;0.65;;;7.60;89.90;;;;;;4989642;28;20033;-76
2021/05/07 03:59:52;;;;;;;0.57;0.57;;;7.60;90.20;;;;;;4986730;28;20033;-76
2021/05/07 04:02:18;;;;;;;0.75;0.75;;;7.60;90.00;;;;;;4989766;28;20041;-75
2021/05/07 04:04:45;;;;;;;1.30;0.60;;;7.60;90.00;;;;;;4981360;28;20413;-76
2021/05/07 04:07:12;;;;;;;0.47;0.47;;;7.60;90.20;;;;;;4991631;28;20744;-76
2021/05/07 04:09:42;;;;;;;0.60;0.60;;;7.50;90.10;;;;;;4987147;28;20026;-76
2021/05/07 04:15:00;;;;;;;0.88;0.88;;;7.50;90.30;;;;;;4977637;28;20042;-76
2021/05/07 04:17:25;;;;;;;2.22;0.65;;;7.50;90.30;;;;;;4987635;28;20018;-76
2021/05/07 04:19:51;;;;;;;0.88;0.85;;;7.50;90.60;;;;;;4984239;28;20066;-76
2021/05/07 04:22:16;;;;;;;0.68;0.68;;;7.50;90.50;;;;;;4987199;28;20053;-76
2021/05/07 04:24:43;;;;;;;0.60;0.60;;;7.50;90.40;;;;;;4989831;28;20038;-75
2021/05/07 04:27:09;;;;;;;1.17;0.70;;;7.50;90.40;;;;;;4990641;28;20448;-75
2021/05/07 04:29:35;;;;;;;0.50;0.50;;;7.50;90.60;;;;;;4987473;28;20370;-76
2021/05/07 04:32:01;;;;;;;0.52;0.52;;;7.50;90.60;;;;;;4982767;28;20046;-76
2021/05/07 04:34:26;;;;;;;2.05;0.68;;;7.50;90.60;;;;;;4988953;28;20022;-76
2021/05/07 04:36:53;;;;;;;2.25;0.52;;;7.50;90.60;;;;;;4987744;28;20034;-76
2021/05/07 04:39:19;;;;;;;0.75;0.75;;;7.50;90.60;;;;;;4989645;28;20077;-76
2021/05/07 04:41:45;;;;;;;0.95;0.93;;;7.50;90.70;;;;;;4986591;28;20037;-75
2021/05/07 04:44:10;;;;;;;0.60;0.60;;;7.50;90.80;;;;;;4980739;28;20098;-75
2021/05/07 04:46:36;;;;;;;1.23;0.82;;;7.50;90.80;;;;;;4993671;28;20022;-76
2021/05/07 04:49:02;;;;;;;0.75;0.70;;;7.50;90.80;;;;;;4980139;28;20512;-76
2021/05/07 04:51:28;;;;;;;0.70;0.70;;;7.60;90.80;;;;;;4997028;28;20022;-74
2021/05/07 04:53:54;;;;;;;0.70;0.60;;;7.50;90.80;;;;;;4979964;28;20034;-76
2021/05/07 04:56:20;;;;;;;0.52;0.52;;;7.60;90.70;;;;;;4984611;28;20018;-75
2021/05/07 04:58:46;;;;;;;0.75;0.75;;;7.50;90.80;;;;;;4984333;28;20145;-76
2021/05/07 05:01:11;;;;;;;1.00;0.70;;;7.50;90.80;;;;;;4986483;28;20062;-76
2021/05/07 05:03:37;;;;;;;0.50;0.50;;;7.50;90.90;;;;;;4988044;28;20511;-77
2021/05/07 05:06:02;;;;;;;1.65;0.60;;;7.50;90.80;;;;;;4991487;28;20022;-77
2021/05/07 05:08:28;;;;;;;1.52;1.08;;;7.40;91.30;;;;;;4998105;28;20030;-76
2021/05/07 05:10:58;;;;;;;1.50;0.70;;;7.50;90.80;;;;;;4991630;28;20103;-76
2021/05/07 05:13:25;;;;;;;0.75;0.75;;;7.50;90.80;;;;;;4989464;28;20037;-76
2021/05/07 05:15:56;;;;;;;0.50;0.50;;;7.50;90.90;;;;;;5006007;28;20038;-76
2021/05/07 05:18:25;;;;;;;1.13;0.70;;;7.50;90.90;;;;;;4983878;28;20037;-76
2021/05/07 05:20:59;;;;;;;2.67;0.80;;;7.50;91.00;;;;;;4993485;28;20129;-76
2021/05/07 05:23:25;;;;;;;0.98;0.93;;;7.50;91.10;;;;;;4985532;28;20057;-76
2021/05/07 05:25:51;;;;;;;0.93;0.93;;;7.40;90.30;;;;;;4983734;28;20248;-76
2021/05/07 05:28:16;;;;;;;1.38;0.90;;;7.40;90.10;;;;;;4988364;28;20486;-76
2021/05/07 05:30:42;;;;;;;0.80;0.80;;;7.30;89.20;;;;;;4984972;28;20057;-76
2021/05/07 05:33:08;;;;;;;0.90;0.90;;;7.30;89.00;;;;;;4985938;28;20050;-76
2021/05/07 05:35:34;;;;;;;0.80;0.80;;;7.30;89.40;;;;;;4985619;28;20559;-76
2021/05/07 05:38:00;;;;;;;1.60;0.90;;;7.30;89.30;;;;;;4985526;28;20027;-77
2021/05/07 05:40:26;;;;;;;0.90;0.90;;;7.30;90.00;;;;;;4987286;28;20036;-76
2021/05/07 05:42:52;;;;;;;0.85;0.85;;;7.30;89.30;;;;;;4983539;28;20037;-76
2021/05/07 05:45:17;;;;;;;0.88;0.88;;;7.30;89.10;;;;;;4992168;28;20030;-76
2021/05/07 05:47:43;;;;;;;2.35;0.90;;;7.30;89.60;;;;;;4995043;28;20519;-76
2021/05/07 05:50:09;;;;;;;0.68;0.68;;;7.30;89.10;;;;;;4988129;28;20076;-76
2021/05/07 05:52:35;;;;;;;0.73;0.73;;;7.40;89.10;;;;;;4987650;28;20034;-76
2021/05/07 05:55:01;;;;;;;1.00;1.00;;;7.30;89.00;;;;;;4994530;28;20030;-76
2021/05/07 05:57:27;;;;;;;0.80;0.80;;;7.30;88.80;;;;;;4995490;28;20022;-75
2021/05/07 05:59:52;;;;;;;0.85;0.85;;;7.30;88.70;;;;;;4989379;28;20073;-76
2021/05/07 06:02:18;;;;;;;0.80;0.80;;;7.30;89.30;;;;;;4988623;28;20031;-75
2021/05/07 06:04:44;;;;;;;1.25;1.15;;;7.40;89.50;;;;;;4990461;28;20027;-76
2021/05/07 06:07:10;;;;;;;0.80;0.80;;;7.40;89.40;;;;;;4987429;28;20096;-77
2021/05/07 06:09:35;;;;;;;1.05;1.00;;;7.40;89.30;;;;;;4987432;28;20034;-75
2021/05/07 06:12:06;;;;;;;1.05;0.90;;;7.40;89.50;;;;;;4993555;28;20480;-77
2021/05/07 06:14:32;;;;;;;0.90;0.90;;;7.40;89.60;;;;;;4987043;28;20354;-75
2021/05/07 06:16:58;;;;;;;1.05;0.95;;;7.40;90.00;;;;;;4983014;28;20029;-76
2021/05/07 06:19:24;;;;;;;0.80;0.80;;;7.40;89.30;;;;;;4993660;28;20023;-76
2021/05/07 06:21:50;;;;;;;0.90;0.90;;;7.30;89.10;;;;;;4988845;28;20030;-75
2021/05/07 06:24:15;;;;;;;0.98;0.93;;;7.20;89.90;;;;;;4991640;28;20022;-75
2021/05/07 06:26:41;;;;;;;0.95;0.95;;;7.20;89.60;;;;;;4987883;28;20563;-76
2021/05/07 06:29:06;;;;;;;0.73;0.73;;;7.10;89.90;;;;;;4990313;28;20018;-77
2021/05/07 06:31:32;;;;;;;1.25;1.15;;;7.10;89.50;;;;;;4988751;28;20035;-75
2021/05/07 06:33:58;;;;;;;1.25;1.10;;;7.00;89.50;;;;;;4989241;28;20273;-75
2021/05/07 06:36:24;;;;;;;1.65;1.10;;;6.90;88.80;;;;;;4995536;28;20037;-76
2021/05/07 06:38:49;;;;;;;0.90;0.90;;;6.90;89.80;;;;;;4989436;28;20476;-75
2021/05/07 06:41:15;;;;;;;0.73;0.73;;;6.80;89.20;;;;;;4984906;28;20026;-76
2021/05/07 06:43:41;;;;;;;0.90;0.90;;;6.90;89.80;;;;;;4989239;28;20026;-76
2021/05/07 06:46:06;;;;;;;1.20;1.00;;;6.90;90.00;;;;;;4989972;28;20033;-75
2021/05/07 06:48:32;;;;;;;1.52;0.85;;;6.90;90.20;;;;;;4987760;28;20057;-75
2021/05/07 06:50:58;;;;;;;0.73;0.73;;;6.90;89.90;;;;;;4988874;28;20088;-76
2021/05/07 06:53:24;;;;;;;2.95;1.00;;;6.90;90.10;;;;;;4989389;28;20127;-76
2021/05/07 06:55:49;;;;;;;0.50;0.50;;;6.90;90.20;;;;;;4989582;28;20030;-75
2021/05/07 06:58:15;;;;;;;1.25;0.60;;;6.80;87.60;;;;;;4986050;28;20018;-75
2021/05/07 07:00:41;;;;;;;0.50;0.50;;;6.70;88.60;;;;;;4989298;28;20357;-75
2021/05/07 07:03:06;;;;;;;0.50;0.50;;;6.70;87.80;;;;;;4988964;28;20045;-76
2021/05/07 07:05:32;;;;;;;0.50;0.50;;;6.60;87.20;;;;;;4988418;28;20053;-74
2021/05/07 07:07:58;;;;;;;0.60;0.60;;;6.50;87.80;;;;;;4989499;28;20114;-73
2021/05/07 07:10:23;;;;;;;0.57;0.40;;;6.40;87.50;;;;;;4988727;28;20038;-75
2021/05/07 07:12:49;;;;;;;0.60;0.60;;;6.30;87.80;;;;;;4987190;28;20062;-75
2021/05/07 07:15:16;;;;;;;0.30;0.30;;;6.20;87.70;;;;;;4988003;28;20398;-75
2021/05/07 07:17:41;;;;;;;0.90;0.30;;;6.20;87.80;;;;;;4987403;28;20027;-76
2021/05/07 07:20:08;;;;;;;0.40;0.40;;;6.10;88.20;;;;;;4985452;28;20026;-76
2021/05/07 07:22:34;;;;;;;0.60;0.60;;;6.10;88.90;;;;;;4987524;28;20030;-76
2021/05/07 07:24:59;;;;;;;0.32;0.32;;;6.10;89.30;;;;;;4987918;28;20026;-77
2021/05/07 07:27:25;;;;;;;0.40;0.40;;;6.20;89.50;;;;;;4994456;28;20024;-76
2021/05/07 07:29:51;;;;;;;0.30;0.30;;;6.20;89.10;;;;;;4988129;28;20026;-75
2021/05/07 07:32:19;;;;;;;0.30;0.30;;;6.20;88.20;;;;;;4989352;28;20042;-75
2021/05/07 07:34:45;;;;;;;0.30;0.30;;;6.20;88.00;;;;;;4987383;28;20146;-75
2021/05/07 07:37:11;;;;;;;0.22;0.22;;;6.20;88.50;;;;;;4988487;28;20525;-75
2021/05/07 07:39:38;;;;;;;0.50;0.50;;;6.20;88.30;;;;;;4982569;28;20121;-76
2021/05/07 07:42:04;;;;;;;0.47;0.47;;;6.20;88.50;;;;;;4985631;28;20027;-76
2021/05/07 07:44:29;;;;;;;0.75;0.68;;;6.10;88.50;;;;;;4987261;28;20453;-76
2021/05/07 07:46:55;;;;;;;0.30;0.30;;;6.00;88.80;;;;;;4985458;28;20109;-75
2021/05/07 07:49:21;;;;;;;0.30;0.30;;;6.00;88.10;;;;;;4984859;28;20034;-75
2021/05/07 07:51:47;;;;;;;0.30;0.30;;;6.00;88.30;;;;;;4986649;28;20037;-76
2021/05/07 07:54:13;;;;;;;0.63;0.38;;;6.00;89.00;;;;;;4987414;28;20436;-75
2021/05/07 07:56:39;;;;;;;0.40;0.40;;;6.10;88.50;;;;;;4991117;28;20030;-75
2021/05/07 07:59:05;;;;;;;2.75;0.50;;;6.10;88.80;;;;;;4987098;28;20033;-74
2021/05/07 08:01:31;;;;;;;0.30;0.30;;;6.10;88.10;;;;;;4990095;28;20033;-76
2021/05/07 08:03:57;;;;;;;0.32;0.32;;;6.20;87.90;;;;;;4986340;28;20030;-75
2021/05/07 08:06:23;;;;;;;0.43;0.43;;;6.20;88.70;;;;;;4982902;28;20027;-76
2021/05/07 08:08:50;;;;;;;0.95;0.43;;;6.20;87.10;;;;;;4986532;28;20377;-75
2021/05/07 08:11:16;;;;;;;0.60;0.60;;;6.20;88.90;;;;;;4986833;28;20609;-76
2021/05/07 08:13:42;;;;;;;0.60;0.60;;;6.30;88.50;;;;;;4981618;28;20065;-75
2021/05/07 08:16:08;;;;;;;0.68;0.52;;;6.30;87.90;;;;;;4980188;28;20089;-76
2021/05/07 08:18:33;;;;;;;0.50;0.50;;;6.30;87.90;;;;;;4977009;28;20018;-75
2021/05/07 08:21:00;;;;;;;0.55;0.55;;;6.40;88.00;;;;;;4997352;28;20046;-76
2021/05/07 08:23:25;;;;;;;0.55;0.55;;;6.40;88.20;;;;;;4974278;28;20033;-76
2021/05/07 08:25:51;;;;;;;0.60;0.60;;;6.40;89.80;;;;;;4978801;28;20446;-76
2021/05/07 08:28:17;;;;;;;0.60;0.60;;;6.60;89.80;;;;;;4976080;28;20458;-76
2021/05/07 08:30:42;;;;;;;0.60;0.60;;;6.60;90.40;;;;;;4981599;28;20129;-76
2021/05/07 08:33:09;;;;;;;0.60;0.60;;;6.70;89.50;;;;;;4985414;28;20088;-76
2021/05/07 08:35:35;;;;;;;2.65;0.85;;;6.60;89.20;;;;;;4980318;28;20031;-75
2021/05/07 08:38:01;;;;;;;0.70;0.70;;;6.70;90.20;;;;;;4979449;28;20129;-75
2021/05/07 08:40:27;;;;;;;0.60;0.60;;;6.70;89.00;;;;;;4976704;28;20034;-75
2021/05/07 08:42:54;;;;;;;0.60;0.60;;;6.80;90.10;;;;;;4982746;28;20027;-75
2021/05/07 08:45:20;;;;;;;2.30;0.82;;;6.80;89.30;;;;;;4979902;28;20081;-75
2021/05/07 08:47:50;;;;;;;0.65;0.65;;;6.90;90.10;;;;;;4988046;28;20034;-74
2021/05/07 08:50:16;;;;;;;0.60;0.60;;;6.90;89.00;;;;;;4988850;28;20030;-76
2021/05/07 08:52:41;;;;;;;0.80;0.80;;;6.90;88.30;;;;;;4987192;28;20489;-75
2021/05/07 08:55:07;;;;;;;0.88;0.88;;;6.90;88.30;;;;;;4984192;28;20041;-75
2021/05/07 08:57:34;;;;;;;0.80;0.80;;;7.00;90.20;;;;;;4983223;28;20038;-76
2021/05/07 08:59:59;;;;;;;0.90;0.90;;;7.00;89.40;;;;;;4988425;28;20129;-76
2021/05/07 09:02:32;;;;;;;0.80;0.80;;;7.00;88.20;;;;;;4991821;28;20129;-74
2021/05/07 09:04:59;;;;;;;0.80;0.80;;;6.90;88.40;;;;;;4987348;28;20033;-74
2021/05/07 09:07:28;;;;;;;0.90;0.90;;;6.90;89.60;;;;;;4983800;28;20122;-76
2021/05/07 09:09:59;;;;;;;1.17;1.05;;;7.00;87.90;;;;;;4982844;28;20026;-75
2021/05/07 09:12:29;;;;;;;0.80;0.80;;;7.00;89.70;;;;;;4986733;28;20149;-74
2021/05/07 09:14:55;;;;;;;0.70;0.70;;;7.00;89.20;;;;;;4981389;28;20034;-75
2021/05/07 09:17:22;;;;;;;0.70;0.70;;;7.10;89.30;;;;;;4982676;28;20069;-75
2021/05/07 09:19:49;;;;;;;0.77;0.77;;;7.10;88.30;;;;;;4985970;28;20018;-75
2021/05/07 09:22:26;;;;;;;0.80;0.80;;;7.10;88.90;;;;;;4985436;28;20022;-73
2021/05/07 09:25:07;;;;;;;0.85;0.85;;;7.20;88.70;;;;;;4980582;28;20114;-74
2021/05/07 09:27:33;;;;;;;0.80;0.80;;;7.30;88.10;;;;;;4987572;28;20378;-74
2021/05/07 09:29:59;;;;;;;0.90;0.90;;;7.20;86.10;;;;;;4983437;28;20053;-73
2021/05/07 09:32:30;;;;;;;0.60;0.60;;;7.20;87.50;;;;;;4984297;28;20100;-74
2021/05/07 09:35:06;;;;;;;2.28;1.00;;;7.20;88.00;;;;;;4983029;28;20472;-74
2021/05/07 09:37:32;;;;;;;1.15;1.10;;;7.10;87.50;;;;;;4980462;28;20843;-74
2021/05/07 09:40:09;;;;;;;1.30;1.20;;;7.20;89.90;;;;;;4982663;28;20164;-75
2021/05/07 09:42:35;;;;;;;1.63;1.52;;;7.20;87.00;;;;;;4985397;28;20046;-75
2021/05/07 09:45:03;;;;;;;1.20;1.17;;;7.20;85.10;;;;;;4985111;28;20550;-75
2021/05/07 09:47:34;;;;;;;2.10;1.20;;;7.20;88.40;;;;;;4985949;28;20026;-74
2021/05/07 09:50:05;;;;;;;1.50;1.40;;;7.30;87.50;;;;;;4998207;28;20292;-73
2021/05/07 09:52:31;;;;;;;1.50;1.40;;;7.20;84.00;;;;;;4986946;28;20034;-75
2021/05/07 09:54:57;;;;;;;2.20;1.90;;;7.10;85.00;;;;;;4981042;28;20053;-75
2021/05/07 09:57:23;;;;;;;2.05;1.65;;;7.10;85.50;;;;;;4988093;28;20523;-74
2021/05/07 09:59:49;;;;;;;4.07;3.15;;;7.20;87.10;;;;;;4988587;28;20038;-75
2021/05/07 10:02:15;;;;;;;4.25;3.17;;;7.40;86.50;;;;;;4987953;28;20035;-75
2021/05/07 10:04:42;;;;;;;2.97;2.78;;;7.50;84.40;;;;;;4986028;28;20054;-75
2021/05/07 10:07:07;;;;;;;3.80;2.88;;;7.60;86.30;;;;;;4985009;28;20027;-74
2021/05/07 10:09:34;;;;;;;4.50;3.13;;;7.90;84.90;;;;;;4981324;28;20029;-74
2021/05/07 10:12:01;;;;;;;5.03;4.20;;;8.00;84.10;;;;;;4992052;28;20684;-73
2021/05/07 10:14:28;;;;;;;5.50;3.40;;;8.10;86.80;;;;;;4987330;28;20097;-74
2021/05/07 10:16:55;;;;;;;3.47;3.17;;;8.10;81.80;;;;;;4986752;28;20057;-74
2021/05/07 10:19:21;;;;;;;4.47;3.20;;;8.20;86.90;;;;;;4987442;28;20473;-73
2021/05/07 10:21:48;;;;;;;3.35;2.72;;;8.40;85.50;;;;;;4984209;28;20098;-74
2021/05/07 10:24:16;;;;;;;3.20;2.88;;;8.50;83.40;;;;;;4981284;28;20057;-75
2021/05/07 10:26:45;;;;;;;4.23;3.43;;;8.40;81.60;;;;;;4980274;28;20033;-75
2021/05/07 10:29:16;;;;;;;4.65;3.85;;;8.40;79.00;;;;;;4984822;28;20336;-75
2021/05/07 10:31:54;;;;;;;3.88;3.22;;;8.50;83.50;;;;;;4979932;28;20517;-75
2021/05/07 10:34:24;;;;;;;4.97;3.63;;;8.40;81.40;;;;;;4982279;28;20034;-74
2021/05/07 10:36:54;;;;;;;4.90;3.22;;;8.50;82.20;;;;;;4986224;28;20019;-74
2021/05/07 10:39:27;;;;;;;4.07;3.53;;;8.50;80.80;;;;;;4987017;28;20477;-75
2021/05/07 10:41:55;;;;;;;4.05;3.30;;;8.50;79.20;;;;;;4987915;28;20050;-75
2021/05/07 10:44:22;;;;;;;4.55;3.40;;;8.50;79.90;;;;;;4984321;28;20034;-75
2021/05/07 10:47:09;;;;;;;3.83;3.15;;;8.60;77.50;;;;;;4984819;28;20031;-75
2021/05/07 10:49:37;;;;;;;3.13;2.85;;;8.60;80.10;;;;;;4984786;28;20041;-75
2021/05/07 10:52:07;;;;;;;5.47;3.55;;;8.60;77.30;;;;;;4985739;28;20037;-74
2021/05/07 10:54:45;;;;;;;4.35;3.50;;;8.50;77.70;;;;;;4980581;28;20046;-75
2021/05/07 10:57:21;;;;;;;3.88;3.47;;;8.60;78.90;;;;;;4982469;28;20030;-75
2021/05/07 11:00:02;;;;;;;3.67;3.10;;;8.60;77.50;;;;;;4999248;28;20105;-75
2021/05/07 11:02:29;;;;;;;4.30;3.20;;;8.70;77.80;;;;;;4980983;28;20177;-74
2021/05/07 11:04:55;;;;;;;4.82;3.10;;;8.70;77.20;;;;;;4979911;28;20147;-74
2021/05/07 11:07:29;;;;;;;3.92;2.83;;;8.90;77.10;;;;;;4985243;28;20126;-75
2021/05/07 11:10:07;;;;;;;5.30;3.00;;;8.90;74.70;;;;;;4979945;28;20038;-75
2021/05/07 11:12:39;;;;;;;4.28;3.20;;;8.90;74.40;;;;;;4977177;28;20090;-74
2021/05/07 11:15:13;;;;;;;4.45;3.20;;;8.90;76.10;;;;;;4980452;28;20559;-75
2021/05/07 11:17:38;;;;;;;3.95;3.38;;;8.80;75.20;;;;;;4978471;28;20513;-74
2021/05/07 11:20:05;;;;;;;3.60;3.20;;;8.80;74.70;;;;;;4982072;28;20084;-74
2021/05/07 11:22:30;;;;;;;5.15;3.92;;;8.90;77.30;;;;;;4981768;28;20074;-74
2021/05/07 11:24:57;;;;;;;4.38;2.95;;;8.90;74.50;;;;;;4980131;28;20034;-76
2021/05/07 11:27:26;;;;;;;4.18;3.13;;;8.80;73.00;;;;;;4982164;28;20057;-74
2021/05/07 11:30:03;;;;;;;5.22;2.88;;;8.90;73.90;;;;;;4978966;28;20046;-75
2021/05/07 11:32:30;;;;;;;4.27;3.20;;;9.00;71.40;;;;;;4981756;28;20038;-75
2021/05/07 11:35:00;;;;;;;5.20;3.20;;;9.00;72.60;;;;;;4984631;28;20293;-75
2021/05/07 11:37:29;;;;;;;4.93;3.30;;;9.10;74.40;;;;;;4978943;28;20057;-76
2021/05/07 11:39:58;;;;;;;4.18;3.15;;;9.20;71.40;;;;;;4981627;28;20046;-75
2021/05/07 11:42:30;;;;;;;4.55;4.03;;;9.10;72.80;;;;;;4982840;28;20088;-75
2021/05/07 11:44:55;;;;;;;5.30;3.58;;;9.30;76.00;;;;;;4982119;28;20030;-75
2021/05/07 11:47:21;;;;;;;7.18;3.67;;;9.50;74.50;;;;;;4981107;28;20056;-74
2021/05/07 11:49:49;;;;;;;5.72;3.70;;;9.70;75.40;;;;;;4979628;28;20580;-75
2021/05/07 11:52:15;;;;;;;4.82;3.97;;;9.80;74.40;;;;;;4982361;28;20034;-74
2021/05/07 11:54:42;;;;;;;5.28;3.90;;;9.80;73.10;;;;;;4984179;28;20038;-74
2021/05/07 11:57:09;;;;;;;7.22;4.10;;;9.80;72.30;;;;;;4984270;28;20030;-75
2021/05/07 11:59:47;;;;;;;5.05;3.47;;;9.80;71.90;;;;;;4983125;28;20121;-75
2021/05/07 12:02:23;;;;;;;;;;;9.90;73.60;;;;;;4988457;28;20035;-75
2021/05/07 12:04:49;;;;;;;3.95;3.53;;;10.00;73.10;;;;;;4986646;28;19914;-75
2021/05/07 12:07:29;;;;;;;3.80;3.40;;;9.90;72.80;;;;;;4988603;28;20035;-74
2021/05/07 12:09:57;;;;;;;3.50;3.20;;;10.00;70.50;;;;;;4978520;28;20039;-74
2021/05/07 12:12:24;;;;;;;3.75;3.35;;;9.90;67.20;;;;;;4981180;28;20424;-74
2021/05/07 12:15:01;;;;;;;3.60;3.28;;;9.90;71.30;;;;;;4982628;28;20100;-75
2021/05/07 12:17:37;;;;;;;5.13;3.90;;;9.80;68.80;;;;;;4987747;28;20041;-74
2021/05/07 12:20:04;;;;;;;4.43;3.03;;;9.70;70.50;;;;;;4982837;28;20030;-74
2021/05/07 12:22:33;;;;;;;4.40;3.20;;;9.50;68.50;;;;;;4982054;28;20441;-74
2021/05/07 12:25:16;;;;;;;5.00;3.30;;;9.30;66.30;;;;;;4978436;28;20062;-74
2021/05/07 12:27:42;;;;;;;3.63;3.22;;;9.20;65.50;;;;;;4981699;28;20049;-75
2021/05/07 12:30:14;;;;;;;5.32;3.95;;;9.10;65.10;;;;;;4983211;28;20039;-74
2021/05/07 12:32:42;;;;;;;6.07;3.13;;;9.00;67.20;;;;;;4978736;28;20093;-75
2021/05/07 12:35:08;;;;;;;5.28;3.30;;;9.00;66.40;;;;;;4983373;28;20063;-75
2021/05/07 12:37:40;;;;;;;4.45;3.47;;;8.90;68.40;;;;;;4981645;28;20026;-74
2021/05/07 12:40:06;;;;;;;3.60;3.30;;;8.90;67.60;;;;;;4980909;28;20058;-75
2021/05/07 12:42:33;;;;;;;3.40;3.00;;;9.00;69.10;;;;;;4979059;28;20022;-74
2021/05/07 12:44:58;;;;;;;4.47;3.78;;;8.90;69.00;;;;;;4984018;28;20057;-75
2021/05/07 12:47:24;;;;;;;3.63;3.20;;;8.90;66.60;;;;;;4984352;28;20034;-74
2021/05/07 12:49:49;;;;;;;2.38;2.17;;;8.80;67.60;;;;;;4985146;28;20114;-74
2021/05/07 12:52:15;;;;;;;3.40;3.05;;;8.90;65.70;;;;;;4988572;28;20026;-75
2021/05/07 12:54:41;;;;;;;2.80;2.10;;;8.90;67.30;;;;;;4981832;28;20038;-75
2021/05/07 12:57:06;;;;;;;2.38;2.03;;;8.90;65.10;;;;;;4979683;28;20046;-75
2021/05/07 12:59:32;;;;;;;2.00;1.80;;;9.00;64.80;;;;;;4980773;28;20520;-75